Time;durP1;ratioP1;P1;durP2;ratioP2;P2;SDS_P1;SDS_P2;PMS_P1;PMS_P2;Temp;Humidity;BMP_temperature;BMP_pressure;BME280_temperature;BME280_humidity;BME280_pressure;Samples;Min_cycle;Max_cycle;Signal;HPM_P1;HPM_P2
2023/12/13 04:30:22;;;;;;;;;;;;;;;8.11;92.70;100528.88;105924;1263;72691;-79
2023/12/13 04:33:02;;;;;;;;;;;;;;;8.07;93.25;100526.73;105874;1263;67197;-84
2023/12/13 04:35:41;;;;;;;;;;;;;;;8.05;93.48;100530.42;105955;1259;72678;-79
2023/12/13 04:38:21;;;;;;;;;;;;;;;8.10;93.10;100532.79;106059;1263;60867;-83
2023/12/13 04:40:55;;;;;;;;;;;;;;;8.12;93.06;100530.85;106211;1260;59244;-79
2023/12/13 04:43:28;;;;;;;;;;;;;;;8.10;93.34;100535.89;105935;1257;71882;-79
2023/12/13 04:46:08;;;;;;;;;;;;;;;8.09;93.43;100539.74;105961;1263;67398;-83
2023/12/13 04:48:42;;;;;;;;;;;;;;;8.05;93.83;100543.52;105995;1258;72675;-83
2023/12/13 04:51:10;;;;;;;;;;;;;;;8.06;94.11;100545.60;105959;1263;60010;-79
2023/12/13 04:53:44;;;;;;;;;;;;;;;8.04;94.31;100547.38;105866;1260;59640;-79
2023/12/13 04:56:17;;;;;;;;;;;;;;;8.05;94.48;100548.20;106053;1259;73011;-79
2023/12/13 04:58:52;;;;;;;;;;;;;;;8.12;93.82;100548.65;105841;1259;68529;-83
2023/12/13 05:01:26;;;;;;;;;;;;;;;8.12;93.97;100543.25;106179;1260;72725;-81
2023/12/13 05:03:59;;;;;;;;;;;;;;;8.13;94.00;100546.70;106374;1260;59692;-78
2023/12/13 05:06:33;;;;;;;;;;;;;;;8.11;94.10;100544.84;105919;1259;59809;-82
2023/12/13 05:09:01;;;;;;;;;;;;;;;8.10;94.40;100539.01;105889;1260;71841;-82
2023/12/13 05:11:28;;;;;;;;;;;;;;;8.15;93.83;100532.94;105980;1259;67342;-82
2023/12/13 05:14:03;;;;;;;;;;;;;;;8.10;94.11;100526.64;105888;1263;70629;-82
2023/12/13 05:16:37;;;;;;;;;;;;;;;8.08;94.36;100530.16;105884;1259;59740;-77
2023/12/13 05:19:10;;;;;;;;;;;;;;;8.06;94.75;100538.15;106000;1260;59653;-82
2023/12/13 05:21:44;;;;;;;;;;;;;;;8.11;94.70;100541.34;105916;1262;71894;-83
2023/12/13 05:24:18;;;;;;;;;;;;;;;8.36;93.22;100533.63;106220;1258;68876;-78
2023/12/13 05:26:51;;;;;;;;;;;;;;;8.40;92.49;100532.63;105959;1259;72715;-79
2023/12/13 05:29:25;;;;;;;;;;;;;;;8.41;92.49;100535.38;105940;1259;59509;-78
2023/12/13 05:31:59;;;;;;;;;;;;;;;8.54;91.69;100529.08;106069;1259;59956;-82
2023/12/13 05:34:33;;;;;;;;;;;;;;;8.61;91.32;100535.66;105945;1259;73043;-83
2023/12/13 05:37:07;;;;;;;;;;;;;;;8.67;90.93;100542.39;106123;1263;68360;-83
2023/12/13 05:39:40;;;;;;;;;;;;;;;8.64;91.13;100543.84;105856;1259;72678;-83
2023/12/13 05:42:14;;;;;;;;;;;;;;;8.64;91.23;100537.14;105977;1263;59753;-83
2023/12/13 05:44:47;;;;;;;;;;;;;;;8.65;91.19;100542.21;106016;1259;59800;-79
2023/12/13 05:47:21;;;;;;;;;;;;;;;8.69;91.07;100541.03;106010;1263;73130;-78
2023/12/13 05:49:55;;;;;;;;;;;;;;;8.67;91.07;100539.67;105939;1259;68438;-82
2023/12/13 05:52:28;;;;;;;;;;;;;;;8.66;91.20;100537.80;105988;1258;72476;-78
2023/12/13 05:55:09;;;;;;;;;;;;;;;8.55;91.91;100543.64;105993;1263;60875;-77
2023/12/13 05:57:48;;;;;;;;;;;;;;;8.55;92.15;100545.75;106229;1259;59780;-83
2023/12/13 06:00:30;;;;;;;;;;;;;;;8.57;91.79;100549.31;105912;1259;73119;-83
2023/12/13 06:03:10;;;;;;;;;;;;;;;8.51;92.11;100551.28;105967;1259;68792;-82
2023/12/13 06:05:49;;;;;;;;;;;;;;;8.53;92.41;100558.55;105889;1260;72709;-82
2023/12/13 06:08:29;;;;;;;;;;;;;;;8.60;91.98;100558.98;105847;1260;61083;-78
2023/12/13 06:11:09;;;;;;;;;;;;;;;8.69;91.57;100563.65;105850;1260;59879;-82
2023/12/13 06:13:49;;;;;;;;;;;;;;;8.75;90.79;100561.33;105871;1260;71144;-77
2023/12/13 06:16:28;;;;;;;;;;;;;;;8.65;91.65;100560.30;105876;1258;67479;-78
2023/12/13 06:19:01;;;;;;;;;;;;;;;8.67;91.60;100564.02;106061;1259;71402;-78
2023/12/13 06:21:36;;;;;;;;;;;;;;;8.63;91.79;100566.67;105985;1263;59692;-78
2023/12/13 06:24:10;;;;;;;;;;;;;;;8.68;91.65;100567.36;106249;1259;59545;-78
2023/12/13 06:26:43;;;;;;;;;;;;;;;8.80;90.73;100577.17;106189;1259;73418;-78
2023/12/13 06:29:17;;;;;;;;;;;;;;;8.82;90.42;100575.92;106210;1256;68370;-77
2023/12/13 06:31:51;;;;;;;;;;;;;;;8.83;90.52;100576.70;106261;1256;72669;-78
2023/12/13 06:34:25;;;;;;;;;;;;;;;8.94;89.72;100583.02;106266;1256;59698;-77
2023/12/13 06:36:58;;;;;;;;;;;;;;;8.90;89.81;100584.80;106196;1256;59671;-77
2023/12/13 06:39:32;;;;;;;;;;;;;;;8.80;90.57;100588.72;106168;1256;73129;-78
2023/12/13 06:42:14;;;;;;;;;;;;;;;8.90;90.14;100595.54;106080;1256;67176;-83
2023/12/13 06:44:48;;;;;;;;;;;;;;;8.94;89.66;100600.67;106102;1257;72519;-82
2023/12/13 06:47:21;;;;;;;;;;;;;;;8.89;90.20;100597.87;106273;1259;59760;-77
2023/12/13 06:49:55;;;;;;;;;;;;;;;8.93;89.80;100597.78;106147;1256;59630;-78
2023/12/13 06:52:29;;;;;;;;;;;;;;;8.95;89.64;100598.77;106118;1259;73037;-78
2023/12/13 06:55:03;;;;;;;;;;;;;;;8.99;89.33;100599.06;106172;1256;68389;-78
2023/12/13 06:57:37;;;;;;;;;;;;;;;8.91;90.11;100595.38;106114;1256;72678;-78
2023/12/13 07:00:11;;;;;;;;;;;;;;;8.90;90.25;100592.59;106178;1256;59784;-79
2023/12/13 07:02:45;;;;;;;;;;;;;;;8.90;90.25;100591.28;106151;1254;59752;-78
2023/12/13 07:05:19;;;;;;;;;;;;;;;8.90;90.21;100593.79;106176;1256;74039;-79
2023/12/13 07:07:55;;;;;;;;;;;;;;;8.93;90.31;100595.01;106209;1260;71072;-83
2023/12/13 07:10:29;;;;;;;;;;;;;;;8.89;90.73;100597.05;106732;1257;72680;-83
2023/12/13 07:13:03;;;;;;;;;;;;;;;8.82;91.50;100594.08;106094;1255;60863;-83
2023/12/13 07:15:37;;;;;;;;;;;;;;;8.79;92.17;100597.00;106491;1254;59808;-83
2023/12/13 07:18:11;;;;;;;;;;;;;;;8.88;91.84;100588.77;106202;1253;73056;-83
2023/12/13 07:20:46;;;;;;;;;;;;;;;8.84;92.06;100594.03;106308;1256;68373;-83
2023/12/13 07:23:19;;;;;;;;;;;;;;;8.80;92.30;100592.76;106257;1256;72696;-81
2023/12/13 07:25:53;;;;;;;;;;;;;;;8.77;92.73;100596.55;106286;1259;59740;-82
2023/12/13 07:28:27;;;;;;;;;;;;;;;8.74;93.23;100604.15;106227;1262;59633;-83
2023/12/13 07:31:04;;;;;;;;;;;;;;;8.90;92.54;100598.15;106179;1256;73134;-78
2023/12/13 07:33:43;;;;;;;;;;;;;;;8.96;92.06;100597.63;106379;1255;68741;-78
2023/12/13 07:36:23;;;;;;;;;;;;;;;9.04;91.70;100600.94;106324;1256;70452;-78
2023/12/13 07:39:03;;;;;;;;;;;;;;;9.10;91.30;100600.04;106141;1259;60907;-82
2023/12/13 07:41:43;;;;;;;;;;;;;;;9.11;91.22;100603.32;106157;1255;59697;-84
2023/12/13 07:44:22;;;;;;;;;;;;;;;9.11;91.42;100605.06;106465;1255;72692;-82
2023/12/13 07:47:02;;;;;;;;;;;;;;;9.20;91.03;100606.69;106608;1256;68383;-79
2023/12/13 07:49:42;;;;;;;;;;;;;;;9.28;90.47;100610.81;106314;1256;74644;-82
2023/12/13 07:52:22;;;;;;;;;;;;;;;9.31;90.22;100614.09;106201;1256;60654;-84
2023/12/13 07:55:02;;;;;;;;;;;;;;;9.34;90.00;100619.60;106279;1256;60499;-78
2023/12/13 07:57:41;;;;;;;;;;;;;;;9.37;90.02;100618.74;106212;1256;73829;-79
2023/12/13 08:06:49;;;;;;;;;;;;;;;9.50;89.65;100617.11;103011;1290;599707;-86
2023/12/13 08:09:30;;;;;;;;;;;;;;;9.53;89.37;100617.65;105409;1266;60028;-85
2023/12/13 08:12:10;;;;;;;;;;;;;;;9.60;88.87;100615.27;105470;1267;59740;-86
2023/12/13 08:14:49;;;;;;;;;;;;;;;9.64;88.71;100614.14;105552;1265;72203;-86
2023/12/13 08:17:29;;;;;;;;;;;;;;;9.69;88.19;100611.60;105704;1264;67561;-84
2023/12/13 08:20:09;;;;;;;;;;;;;;;9.83;87.03;100615.34;105723;1268;199097;-84
2023/12/13 08:22:49;;;;;;;;;;;;;;;9.84;86.98;100615.11;105869;1262;60882;-86
2023/12/13 08:25:23;;;;;;;;;;;;;;;9.88;86.54;100618.89;105624;1267;59287;-85
2023/12/13 08:28:01;;;;;;;;;;;;;;;9.80;86.63;100612.71;105800;1262;72001;-85
2023/12/13 08:30:41;;;;;;;;;;;;;;;9.82;86.53;100609.54;105918;1263;70857;-84
2023/12/13 08:33:14;;;;;;;;;;;;;;;9.62;87.66;100604.42;105907;1259;73024;-84
2023/12/13 08:35:46;;;;;;;;;;;;;;;9.33;89.98;100598.13;105945;1257;60880;-84
2023/12/13 08:38:23;;;;;;;;;;;;;;;9.36;90.27;100595.90;106042;1260;59830;-85
2023/12/13 08:40:58;;;;;;;;;;;;;;;9.39;89.89;100592.36;105891;1263;73105;-83
2023/12/13 08:43:31;;;;;;;;;;;;;;;9.37;89.80;100585.66;105823;1257;68339;-83
2023/12/13 08:46:01;;;;;;;;;;;;;;;9.37;89.80;100580.18;105841;1258;71441;-83
2023/12/13 08:48:36;;;;;;;;;;;;;;;9.34;89.78;100571.89;105779;1259;59582;-83
2023/12/13 08:51:12;;;;;;;;;;;;;;;9.44;89.25;100562.42;105932;1259;59541;-86
2023/12/13 08:53:40;;;;;;;;;;;;;;;9.50;88.33;100556.55;105956;1257;72157;-83
2023/12/13 08:56:15;;;;;;;;;;;;;;;9.40;89.12;100553.20;105973;1263;68406;-83
2023/12/13 08:58:51;;;;;;;;;;;;;;;9.43;89.07;100553.85;105895;1262;72554;-86
2023/12/13 09:01:26;;;;;;;;;;;;;;;9.49;88.70;100550.43;106092;1262;59688;-86
2023/12/13 09:03:55;;;;;;;;;;;;;;;9.51;88.26;100548.09;105911;1263;59627;-86
2023/12/13 09:06:30;;;;;;;;;;;;;;;9.51;88.25;100544.44;106079;1257;72800;-86
2023/12/13 09:09:09;;;;;;;;;;;;;;;9.40;88.78;100540.88;106004;1262;67094;-87
2023/12/13 09:11:44;;;;;;;;;;;;;;;9.46;88.52;100544.77;106069;1262;72985;-87
2023/12/13 09:14:12;;;;;;;;;;;;;;;9.46;88.44;100542.25;105868;1263;59670;-85
2023/12/13 09:16:46;;;;;;;;;;;;;;;9.51;88.28;100544.00;105962;1259;59623;-85
2023/12/13 09:19:20;;;;;;;;;;;;;;;9.59;87.56;100544.71;105890;1259;73094;-86
2023/12/13 09:21:59;;;;;;;;;;;;;;;9.54;88.14;100544.88;106037;1259;67141;-86
2023/12/13 09:24:26;;;;;;;;;;;;;;;9.60;87.96;100539.44;105970;1263;72768;-84
2023/12/13 09:27:00;;;;;;;;;;;;;;;9.59;88.12;100534.20;105927;1261;60089;-83
2023/12/13 09:29:34;;;;;;;;;;;;;;;9.52;88.71;100532.49;106023;1257;59812;-83
2023/12/13 09:32:07;;;;;;;;;;;;;;;9.55;88.65;100525.95;105927;1258;73085;-84
2023/12/13 09:34:35;;;;;;;;;;;;;;;9.54;88.42;100526.71;105903;1259;67611;-84
2023/12/13 09:37:09;;;;;;;;;;;;;;;9.56;88.41;100528.02;105855;1259;72428;-86
2023/12/13 09:39:45;;;;;;;;;;;;;;;9.67;87.90;100532.13;105978;1260;59662;-87
2023/12/13 09:42:20;;;;;;;;;;;;;;;9.75;86.95;100532.69;106047;1258;59781;-84
2023/12/13 09:44:49;;;;;;;;;;;;;;;9.84;86.01;100533.99;105918;1263;73033;-86
2023/12/13 09:47:23;;;;;;;;;;;;;;;9.85;85.53;100533.58;106074;1257;68480;-87
2023/12/13 09:49:57;;;;;;;;;;;;;;;9.74;86.44;100536.61;106037;1259;70826;-84
2023/12/13 09:52:25;;;;;;;;;;;;;;;9.75;86.54;100541.04;106103;1263;59639;-87
2023/12/13 09:55:00;;;;;;;;;;;;;;;9.82;86.43;100538.80;106145;1259;59862;-86
2023/12/13 09:57:36;;;;;;;;;;;;;;;9.85;86.23;100533.85;106099;1258;73072;-86
2023/12/13 10:00:12;;;;;;;;;;;;;;;9.90;85.94;100530.56;105939;1257;66261;-86
2023/12/13 10:02:40;;;;;;;;;;;;;;;10.05;85.67;100528.64;106007;1259;70622;-87
2023/12/13 10:05:17;;;;;;;;;;;;;;;10.21;85.15;100524.20;106003;1257;59704;-84
2023/12/13 10:07:58;;;;;;;;;;;;;;;10.33;84.81;100528.59;105970;1263;59826;-85
2023/12/13 10:10:37;;;;;;;;;;;;;;;10.49;84.23;100524.04;105880;1262;73058;-85
2023/12/13 10:13:06;;;;;;;;;;;;;;;10.55;83.75;100521.29;105951;1257;68408;-84
2023/12/13 10:15:41;;;;;;;;;;;;;;;10.55;84.01;100521.29;106000;1259;72652;-85
2023/12/13 10:18:17;;;;;;;;;;;;;;;10.60;83.87;100523.19;106079;1256;59695;-85
2023/12/13 10:20:52;;;;;;;;;;;;;;;10.73;83.03;100532.00;105921;1258;60315;-85
2023/12/13 10:23:20;;;;;;;;;;;;;;;10.79;82.71;100532.91;105980;1258;73009;-85
2023/12/13 10:25:55;;;;;;;;;;;;;;;10.85;82.60;100541.80;106042;1261;68653;-85
2023/12/13 10:28:31;;;;;;;;;;;;;;;10.93;81.83;100548.94;105952;1259;72475;-86
2023/12/13 10:31:05;;;;;;;;;;;;;;;11.01;80.80;100551.69;106874;1258;59102;-86
2023/12/13 10:33:34;;;;;;;;;;;;;;;11.05;80.43;100553.96;105936;1260;60708;-86
2023/12/13 10:36:09;;;;;;;;;;;;;;;11.09;79.45;100558.39;105712;1264;74147;-86
2023/12/13 10:38:45;;;;;;;;;;;;;;;11.06;79.42;100555.89;105910;1264;67308;-86
2023/12/13 10:41:25;;;;;;;;;;;;;;;10.99;79.71;100556.90;106053;1260;72746;-86
2023/12/13 10:43:58;;;;;;;;;;;;;;;10.87;79.66;100559.73;105871;1263;60931;-86
2023/12/13 10:46:37;;;;;;;;;;;;;;;10.87;79.08;100555.95;105882;1259;59782;-86
2023/12/13 10:49:12;;;;;;;;;;;;;;;10.93;78.34;100551.29;105930;1257;73474;-86
2023/12/13 10:51:46;;;;;;;;;;;;;;;10.90;78.15;100542.16;105924;1263;67441;-86
2023/12/13 10:54:16;;;;;;;;;;;;;;;10.84;78.23;100541.20;106030;1258;71413;-86
2023/12/13 10:56:51;;;;;;;;;;;;;;;10.78;78.44;100536.95;105835;1263;60492;-85
2023/12/13 10:59:26;;;;;;;;;;;;;;;10.70;78.88;100533.31;105947;1257;59659;-86
2023/12/13 11:02:00;;;;;;;;;;;;;;;10.67;78.85;100529.27;105967;1261;75095;-85
2023/12/13 11:04:29;;;;;;;;;;;;;;;10.58;79.49;100524.71;105878;1258;68685;-85
2023/12/13 11:07:06;;;;;;;;;;;;;;;10.41;80.97;100530.38;105931;1260;71452;-87
2023/12/13 11:09:51;;;;;;;;;;;;;;;10.41;80.72;100531.91;105885;1261;59602;-86
2023/12/13 11:12:25;;;;;;;;;;;;;;;10.45;80.79;100533.87;106089;1259;60785;-86
2023/12/13 11:14:53;;;;;;;;;;;;;;;10.48;80.26;100534.80;105965;1259;73118;-86
2023/12/13 11:17:27;;;;;;;;;;;;;;;10.50;79.60;100535.12;105921;1264;67268;-87
2023/12/13 11:20:09;;;;;;;;;;;;;;;10.50;79.42;100527.85;106010;1262;72640;-87
2023/12/13 11:22:47;;;;;;;;;;;;;;;10.54;79.09;100531.29;105928;1263;59724;-87
2023/12/13 11:25:15;;;;;;;;;;;;;;;10.51;79.33;100530.47;105927;1259;59761;-86
2023/12/13 11:27:53;;;;;;;;;;;;;;;10.36;80.55;100524.92;105914;1259;71471;-87
2023/12/13 11:30:27;;;;;;;;;;;;;;;10.39;80.92;100521.31;106081;1257;71052;-87
2023/12/13 11:33:09;;;;;;;;;;;;;;;10.42;80.52;100515.29;106150;1259;72669;-87
2023/12/13 11:35:37;;;;;;;;;;;;;;;10.44;80.16;100511.37;106332;1265;59540;-87
2023/12/13 11:38:11;;;;;;;;;;;;;;;10.46;80.02;100516.81;108836;1259;61995;-85
2023/12/13 11:40:45;;;;;;;;;;;;;;;10.47;80.04;100527.20;108922;1257;73232;-84
2023/12/13 11:43:12;;;;;;;;;;;;;;;10.53;80.00;100532.61;108559;1260;67119;-82
2023/12/13 11:45:48;;;;;;;;;;;;;;;10.55;79.82;100529.52;105907;1263;72690;-84
2023/12/13 11:48:22;;;;;;;;;;;;;;;10.62;79.28;100522.36;105834;1264;61481;-83
2023/12/13 11:50:56;;;;;;;;;;;;;;;10.69;78.03;100518.79;106036;1260;62130;-83
2023/12/13 11:53:24;;;;;;;;;;;;;;;10.61;77.72;100518.52;105896;1259;73125;-85
2023/12/13 11:55:58;;;;;;;;;;;;;;;10.58;77.64;100518.92;105992;1262;69783;-86
2023/12/13 11:58:32;;;;;;;;;;;;;;;10.59;77.33;100519.13;105917;1259;72775;-86
2023/12/13 12:01:05;;;;;;;;;;;;;;;10.60;77.20;100519.46;105859;1259;59721;-86
2023/12/13 12:03:33;;;;;;;;;;;;;;;10.59;76.98;100523.19;105820;1257;59553;-86
2023/12/13 12:06:17;;;;;;;;;;;;;;;10.65;76.43;100521.97;105885;1261;73362;-86
2023/12/13 12:08:51;;;;;;;;;;;;;;;10.59;76.89;100527.73;105998;1264;70234;-85
2023/12/13 12:11:24;;;;;;;;;;;;;;;10.41;78.04;100523.23;105866;1259;71649;-86
2023/12/13 12:13:52;;;;;;;;;;;;;;;10.29;79.30;100521.00;105989;1259;61361;-86
2023/12/13 12:16:26;;;;;;;;;;;;;;;10.28;79.55;100511.77;105940;1258;61135;-86
2023/12/13 12:19:00;;;;;;;;;;;;;;;10.36;79.13;100506.86;106070;1256;75468;-87
2023/12/13 12:21:35;;;;;;;;;;;;;;;10.38;78.51;100506.14;106049;1259;68692;-86
2023/12/13 12:24:03;;;;;;;;;;;;;;;10.45;77.87;100507.80;105949;1261;73877;-87
2023/12/13 12:26:37;;;;;;;;;;;;;;;10.40;78.42;100514.94;105870;1259;60539;-86
2023/12/13 12:29:10;;;;;;;;;;;;;;;10.42;78.29;100520.16;106018;1264;60073;-87
2023/12/13 12:31:44;;;;;;;;;;;;;;;10.41;78.46;100519.89;106013;1260;75173;-86
2023/12/13 12:34:14;;;;;;;;;;;;;;;10.40;78.41;100528.52;105840;1259;69735;-87
2023/12/13 12:36:48;;;;;;;;;;;;;;;10.37;78.73;100530.61;106038;1262;74078;-86
2023/12/13 12:39:22;;;;;;;;;;;;;;;10.32;79.31;100538.00;106007;1261;62008;-86
2023/12/13 12:41:49;;;;;;;;;;;;;;;10.30;79.80;100540.61;106039;1259;60371;-86
2023/12/13 12:44:23;;;;;;;;;;;;;;;10.35;79.43;100534.33;105934;1259;74802;-84
2023/12/13 12:46:57;;;;;;;;;;;;;;;10.39;78.48;100533.55;105967;1259;68318;-84
2023/12/13 12:49:31;;;;;;;;;;;;;;;10.42;77.34;100526.23;105957;1259;72686;-85
2023/12/13 12:51:59;;;;;;;;;;;;;;;10.44;76.34;100526.66;105818;1259;60249;-84
2023/12/13 12:54:32;;;;;;;;;;;;;;;10.38;76.42;100532.02;105940;1262;60338;-86
2023/12/13 12:57:06;;;;;;;;;;;;;;;10.33;76.59;100538.20;105936;1259;76924;-85
2023/12/13 12:59:40;;;;;;;;;;;;;;;10.31;76.96;100537.78;106006;1259;67285;-85
2023/12/13 13:02:09;;;;;;;;;;;;;;;10.39;76.07;100542.63;105959;1259;74960;-86
2023/12/13 13:04:43;;;;;;;;;;;;;;;10.40;75.86;100546.88;105882;1263;60455;-86
2023/12/13 13:07:16;;;;;;;;;;;;;;;10.35;75.95;100547.48;105926;1257;60528;-86
2023/12/13 13:09:51;;;;;;;;;;;;;;;10.27;76.49;100548.20;105881;1259;72695;-87
2023/12/13 13:12:20;;;;;;;;;;;;;;;10.24;76.93;100551.36;106366;1259;68366;-87
2023/12/13 13:14:54;;;;;;;;;;;;;;;10.25;77.23;100550.54;106314;1259;73527;-87
2023/12/13 13:17:30;;;;;;;;;;;;;;;10.21;77.91;100542.34;105954;1259;60878;-86
2023/12/13 13:20:12;;;;;;;;;;;;;;;10.19;78.42;100537.86;106140;1263;60337;-86
2023/12/13 13:22:40;;;;;;;;;;;;;;;10.21;78.29;100538.96;105981;1259;74954;-87
2023/12/13 13:25:15;;;;;;;;;;;;;;;10.24;77.71;100545.79;106426;1263;68377;-85
2023/12/13 13:27:53;;;;;;;;;;;;;;;10.11;78.27;100547.15;105786;1261;74198;-87
2023/12/13 13:30:20;;;;;;;;;;;;;;;10.00;78.90;100549.83;105838;1260;60887;-86
2023/12/13 13:32:49;;;;;;;;;;;;;;;9.99;79.10;100551.85;106050;1257;60492;-86
2023/12/13 13:35:24;;;;;;;;;;;;;;;10.01;79.42;100551.03;105966;1257;75985;-85
2023/12/13 13:37:58;;;;;;;;;;;;;;;10.09;79.36;100546.62;105944;1263;70911;-85
2023/12/13 13:40:26;;;;;;;;;;;;;;;10.10;79.21;100547.05;105913;1259;70626;-85
2023/12/13 13:42:59;;;;;;;;;;;;;;;10.09;79.24;100542.73;105738;1259;62044;-86
2023/12/13 13:45:33;;;;;;;;;;;;;;;10.16;78.46;100543.61;106026;1258;61140;-86
2023/12/13 13:48:07;;;;;;;;;;;;;;;10.10;78.49;100540.65;105907;1256;74309;-86
2023/12/13 13:50:35;;;;;;;;;;;;;;;9.92;79.23;100547.53;105690;1264;69922;-86
2023/12/13 13:53:09;;;;;;;;;;;;;;;9.79;79.86;100546.06;105938;1259;72995;-86
2023/12/13 13:55:44;;;;;;;;;;;;;;;9.72;80.14;100549.81;105964;1265;62829;-86
2023/12/13 13:58:18;;;;;;;;;;;;;;;9.64;80.45;100555.20;106000;1262;60465;-86
2023/12/13 14:00:46;;;;;;;;;;;;;;;9.53;81.55;100557.42;105966;1260;76147;-86
2023/12/13 14:03:20;;;;;;;;;;;;;;;9.57;81.42;100559.13;105922;1264;71036;-86
2023/12/13 14:05:55;;;;;;;;;;;;;;;9.53;81.60;100559.27;105948;1260;74616;-86
2023/12/13 14:08:29;;;;;;;;;;;;;;;9.49;82.06;100560.20;106086;1259;64648;-86
2023/12/13 14:10:57;;;;;;;;;;;;;;;9.38;82.95;100557.61;105982;1259;62047;-87
2023/12/13 14:13:37;;;;;;;;;;;;;;;9.45;82.96;100554.73;105945;1264;75651;-85
2023/12/13 14:16:11;;;;;;;;;;;;;;;9.55;82.07;100551.70;105998;1257;69308;-86
2023/12/13 14:18:38;;;;;;;;;;;;;;;9.57;81.89;100554.87;105975;1263;74046;-86
2023/12/13 14:21:12;;;;;;;;;;;;;;;9.57;81.83;100556.73;105978;1257;61751;-86
2023/12/13 14:23:46;;;;;;;;;;;;;;;9.54;82.33;100559.17;105961;1260;60891;-86
2023/12/13 14:26:20;;;;;;;;;;;;;;;9.45;83.06;100559.15;105921;1258;74183;-86
2023/12/13 14:28:47;;;;;;;;;;;;;;;9.47;82.75;100556.38;105904;1259;70289;-86
2023/12/13 14:31:23;;;;;;;;;;;;;;;9.52;82.04;100559.40;105977;1259;73761;-85
2023/12/13 14:33:58;;;;;;;;;;;;;;;9.41;82.67;100560.52;105991;1261;60503;-86
2023/12/13 14:36:32;;;;;;;;;;;;;;;9.35;83.45;100561.85;105925;1261;61774;-86
2023/12/13 14:38:59;;;;;;;;;;;;;;;9.36;83.56;100565.52;106009;1257;72384;-86
2023/12/13 14:41:33;;;;;;;;;;;;;;;9.47;82.62;100566.91;105898;1265;68775;-86
2023/12/13 14:44:07;;;;;;;;;;;;;;;9.51;82.09;100569.26;106081;1259;75025;-86
2023/12/13 14:46:41;;;;;;;;;;;;;;;9.52;82.02;100570.79;105886;1263;61627;-86
2023/12/13 14:49:08;;;;;;;;;;;;;;;9.55;81.82;100574.08;105891;1259;61889;-86
2023/12/13 14:51:43;;;;;;;;;;;;;;;9.49;82.20;100578.03;105890;1259;75013;-85
2023/12/13 14:54:17;;;;;;;;;;;;;;;9.52;82.49;100585.80;105948;1258;69933;-86
2023/12/13 14:56:44;;;;;;;;;;;;;;;9.57;81.90;100585.75;105866;1260;73729;-85
2023/12/13 14:59:15;;;;;;;;;;;;;;;9.51;82.39;100581.65;105921;1261;60580;-87
2023/12/13 15:01:48;;;;;;;;;;;;;;;9.47;82.90;100589.33;106054;1259;61069;-86
2023/12/13 15:04:22;;;;;;;;;;;;;;;9.50;82.74;100598.07;105924;1263;74790;-86
2023/12/13 15:06:50;;;;;;;;;;;;;;;9.59;82.16;100591.71;105945;1259;70179;-86
2023/12/13 15:09:25;;;;;;;;;;;;;;;9.66;81.59;100590.52;106018;1261;75025;-86
2023/12/13 15:12:00;;;;;;;;;;;;;;;9.81;80.44;100584.16;105965;1263;60567;-86
2023/12/13 15:14:34;;;;;;;;;;;;;;;9.76;80.44;100577.11;105896;1262;61765;-86
2023/12/13 15:17:02;;;;;;;;;;;;;;;9.72;80.52;100577.15;105898;1257;76627;-86
2023/12/13 15:19:36;;;;;;;;;;;;;;;9.70;80.80;100583.76;106119;1268;69903;-86
2023/12/13 15:22:10;;;;;;;;;;;;;;;9.72;80.80;100583.43;105979;1261;74616;-85
2023/12/13 15:24:43;;;;;;;;;;;;;;;9.60;81.62;100580.03;105951;1261;60287;-86
2023/12/13 15:27:11;;;;;;;;;;;;;;;9.50;82.75;100578.86;106070;1259;62402;-86
2023/12/13 15:29:46;;;;;;;;;;;;;;;9.41;83.65;100588.38;105954;1260;72251;-86
2023/12/13 15:32:19;;;;;;;;;;;;;;;9.45;83.90;100587.96;106145;1263;67333;-86
2023/12/13 15:34:53;;;;;;;;;;;;;;;9.37;84.92;100585.59;105900;1265;71417;-87
2023/12/13 15:37:21;;;;;;;;;;;;;;;9.35;85.19;100585.47;106237;1255;60451;-87
2023/12/13 15:39:55;;;;;;;;;;;;;;;9.39;85.05;100589.73;106357;1259;60869;-87
2023/12/13 15:42:28;;;;;;;;;;;;;;;9.44;84.65;100589.70;106249;1258;74748;-86
2023/12/13 15:44:56;;;;;;;;;;;;;;;9.37;85.31;100593.39;106296;1256;69768;-87
2023/12/13 15:47:30;;;;;;;;;;;;;;;9.39;85.51;100591.21;106210;1259;72655;-87
2023/12/13 15:50:06;;;;;;;;;;;;;;;9.45;85.01;100593.90;106363;1254;60911;-87
2023/12/13 15:52:42;;;;;;;;;;;;;;;9.34;85.90;100596.10;106247;1259;60426;-84
2023/12/13 15:55:15;;;;;;;;;;;;;;;9.25;87.12;100600.83;106319;1258;74974;-84
2023/12/13 15:57:49;;;;;;;;;;;;;;;9.26;87.56;100598.09;106184;1259;68352;-83
2023/12/13 16:00:27;;;;;;;;;;;;;;;9.42;86.44;100594.27;106267;1257;71324;-84
2023/12/13 16:03:00;;;;;;;;;;;;;;;9.49;86.29;100596.48;106084;1257;60848;-84
2023/12/13 16:05:28;;;;;;;;;;;;;;;9.51;86.03;100589.23;106198;1259;60613;-84
2023/12/13 16:08:02;;;;;;;;;;;;;;;9.46;86.52;100588.08;106249;1261;75293;-84
2023/12/13 16:10:36;;;;;;;;;;;;;;;9.53;86.06;100581.04;106269;1260;69652;-84
2023/12/13 16:13:09;;;;;;;;;;;;;;;9.53;85.88;100578.16;106194;1259;72693;-84
2023/12/13 16:15:37;;;;;;;;;;;;;;;9.55;85.73;100575.77;106270;1254;60516;-84
2023/12/13 16:18:12;;;;;;;;;;;;;;;9.48;86.24;100571.54;106178;1259;60859;-83
2023/12/13 16:20:46;;;;;;;;;;;;;;;9.41;86.79;100577.09;106299;1253;75279;-83
2023/12/13 16:23:19;;;;;;;;;;;;;;;9.31;87.67;100579.89;106171;1259;67827;-83
2023/12/13 16:25:47;;;;;;;;;;;;;;;9.21;88.61;100578.50;106065;1261;74001;-83
2023/12/13 16:28:21;;;;;;;;;;;;;;;9.18;89.06;100571.40;106191;1259;60480;-83
2023/12/13 16:30:58;;;;;;;;;;;;;;;9.13;89.52;100567.66;106131;1253;62095;-83
2023/12/13 16:33:32;;;;;;;;;;;;;;;9.13;89.62;100567.73;106192;1258;74988;-82
2023/12/13 16:36:01;;;;;;;;;;;;;;;9.16;89.64;100561.13;106186;1259;70187;-82
2023/12/13 16:38:34;;;;;;;;;;;;;;;9.19;89.25;100560.51;106261;1254;75046;-82
2023/12/13 16:41:02;;;;;;;;;;;;;;;9.17;89.51;100564.64;106355;1255;60337;-82
2023/12/13 16:43:30;;;;;;;;;;;;;;;9.21;88.71;100557.94;106260;1258;60514;-82
2023/12/13 16:46:01;;;;;;;;;;;;;;;9.24;88.55;100558.66;106206;1255;75717;-82
2023/12/13 16:48:35;;;;;;;;;;;;;;;9.30;88.04;100557.31;106261;1259;68342;-82
2023/12/13 16:51:09;;;;;;;;;;;;;;;9.28;88.09;100556.59;106237;1257;72851;-82
2023/12/13 16:53:37;;;;;;;;;;;;;;;9.20;88.32;100553.20;106243;1255;62990;-82
2023/12/13 16:56:18;;;;;;;;;;;;;;;9.19;88.54;100550.30;106269;1255;62110;-83
2023/12/13 16:58:46;;;;;;;;;;;;;;;9.25;87.90;100548.73;106251;1256;74981;-82
2023/12/13 17:01:19;;;;;;;;;;;;;;;9.41;86.33;100549.81;106285;1254;69527;-82
2023/12/13 17:03:49;;;;;;;;;;;;;;;9.44;85.53;100543.93;106135;1260;71757;-82
2023/12/13 17:06:18;;;;;;;;;;;;;;;9.44;84.98;100538.15;106229;1259;62047;-82
2023/12/13 17:08:52;;;;;;;;;;;;;;;9.39;85.18;100534.59;106095;1254;60953;-82
2023/12/13 17:11:20;;;;;;;;;;;;;;;9.43;84.75;100535.81;106254;1254;74666;-83
2023/12/13 17:13:50;;;;;;;;;;;;;;;9.39;84.82;100535.45;106134;1261;67283;-82
2023/12/13 17:16:24;;;;;;;;;;;;;;;9.36;84.71;100536.02;106352;1259;75046;-83
2023/12/13 17:18:52;;;;;;;;;;;;;;;9.42;84.29;100538.14;106176;1254;60819;-82
2023/12/13 17:21:20;;;;;;;;;;;;;;;9.47;83.66;100541.42;106222;1254;60627;-84
2023/12/13 17:23:54;;;;;;;;;;;;;;;9.66;81.95;100535.95;106241;1255;73080;-83
2023/12/13 17:26:22;;;;;;;;;;;;;;;9.73;80.98;100542.89;106011;1254;69708;-83
2023/12/13 17:28:56;;;;;;;;;;;;;;;9.62;81.55;100541.13;106235;1254;74120;-83
2023/12/13 17:31:30;;;;;;;;;;;;;;;9.54;81.99;100532.39;106338;1255;61350;-83
2023/12/13 17:34:03;;;;;;;;;;;;;;;9.52;82.40;100526.27;106370;1254;62248;-83
2023/12/13 17:36:37;;;;;;;;;;;;;;;9.61;81.56;100526.55;106594;1255;74422;-83
2023/12/13 17:39:06;;;;;;;;;;;;;;;9.71;80.54;100524.59;106792;1254;69317;-83
2023/12/13 17:41:34;;;;;;;;;;;;;;;9.74;79.95;100520.45;106408;1259;73864;-82